WetterOnline ( https://www.wetteronline.de )

Wetter aktuell Honerath

Aktuelles Wetter: Nürburg-Barweiler (488m)

6-stündlich | Neueste Meldungen
Ortszeit Temperatur Wetter
Mi, 18.05. 20:00 24.2° C wolkig
Mi, 18.05. 14:00 26.4° C leicht bewölkt
Mi, 18.05. 8:00 16.7° C wolkig
Mi, 18.05. 2:00 16.9° C wolkenlos
Di, 17.05. 20:00 21.3° C bedeckt
Di, 17.05. 14:00 21.6° C wolkig
Di, 17.05. 8:00 12.0° C wolkig
Di, 17.05. 2:00 12.7° C wolkenlos
Ortszeit Temperatur Wetter
Do, 19.05. 1:00 20.3° C wolkig
Do, 19.05. 0:30 21.0° C wolkig
Do, 19.05. 0:20 21.0° C wolkig
Do, 19.05. 0:10 21.3° C bedeckt
Do, 19.05. 0:00 21.6° C wolkig
Mi, 18.05. 23:50 21.6° C wolkig
Mi, 18.05. 23:30 21.7° C wolkig
Mi, 18.05. 23:00 22.0° C wolkig
Mi, 18.05. 22:30 21.8° C wolkig
Mi, 18.05. 22:00 21.7° C wolkig
Ortszeit Relative Feuchte Sichtweite
Mi, 18.05. 20:00 42% 55 km
Mi, 18.05. 14:00 37% 55 km
Mi, 18.05. 8:00 68% 45 km
Mi, 18.05. 2:00 63% 50 km
Di, 17.05. 20:00 51% 50 km
Di, 17.05. 14:00 49% 60 km
Di, 17.05. 8:00 85% 40 km
Di, 17.05. 2:00 80% 45 km
Ortszeit Relative Feuchte Sichtweite
Do, 19.05. 1:00 48% 65 km
Do, 19.05. 0:30 45% 65 km
Do, 19.05. 0:20 45% -
Do, 19.05. 0:10 44% -
Do, 19.05. 0:00 44% >70 km
Mi, 18.05. 23:50 44% -
Mi, 18.05. 23:30 43% 60 km
Mi, 18.05. 23:00 43% 55 km
Mi, 18.05. 22:30 45% 55 km
Mi, 18.05. 22:00 47% 60 km
Ortszeit Niederschlagsmenge Niederschlagsart
Mi, 18.05. 20:00 0.0 l/m2 in 12 Std. -
Mi, 18.05. 14:00 0.0 l/m2 in 6 Std. -
Mi, 18.05. 8:00 0.0 l/m2 in 12 Std. -
Mi, 18.05. 2:00 0.0 l/m2 in 6 Std. -
Di, 17.05. 20:00 0.0 l/m2 in 12 Std. -
Di, 17.05. 14:00 0.0 l/m2 in 6 Std. -
Di, 17.05. 8:00 0.0 l/m2 in 12 Std. -
Di, 17.05. 2:00 0.0 l/m2 in 6 Std. -
Ortszeit Niederschlagsmenge Niederschlagsart
Do, 19.05. 1:00 keine Meldung -
Do, 19.05. 0:30 0.0 l/m2 in 1 Std. -
Do, 19.05. 0:20 keine Meldung -
Do, 19.05. 0:10 keine Meldung -
Do, 19.05. 0:00 0.0 l/m2 in 1 Std. -
Mi, 18.05. 23:50 keine Meldung -
Mi, 18.05. 23:30 0.0 l/m2 in 1 Std. -
Mi, 18.05. 23:00 0.0 l/m2 in 1 Std. -
Mi, 18.05. 22:30 0.0 l/m2 in 1 Std. -
Mi, 18.05. 22:00 0.0 l/m2 in 1 Std. -
Ortszeit Stärke Spitze Richtung
km/h Bft. km/h Grad Sektor
Mi, 18.05. 20:00 13 3 26 130° SO
Mi, 18.05. 14:00 11 2 25 110° O
Mi, 18.05. 8:00 4 1 22 190° S
Mi, 18.05. 2:00 11 2 22 140° SO
Di, 17.05. 20:00 7 2 25 150° SO
Di, 17.05. 14:00 7 2 24 170° S
Di, 17.05. 8:00 4 1 11 200° S
Di, 17.05. 2:00 4 1 22 230° SW
Ortszeit Stärke Spitze Richtung
km/h Bft. km/h Grad Sektor
Do, 19.05. 1:00 11 2 24 130° SO
Do, 19.05. 0:30 14 3 25 130° SO
Do, 19.05. 0:20 14 3 - 130° SO
Do, 19.05. 0:10 14 3 - 140° SO
Do, 19.05. 0:00 17 3 31 140° SO
Mi, 18.05. 23:50 17 3 - 140° SO
Mi, 18.05. 23:30 18 3 32 140° SO
Mi, 18.05. 23:00 18 3 29 140° SO
Mi, 18.05. 22:30 17 3 26 130° SO
Mi, 18.05. 22:00 15 3 22 130° SO
Ortszeit Untergrenze Bedeckung Gattung
total tief tief mittel hoch
Mi, 18.05. 20:00 8100 m 8/8 0/8 - - -
Mi, 18.05. 14:00 10500 m 6/8 0/8 - - -
Mi, 18.05. 8:00 2100 m 8/8 3/8 - - -
Mi, 18.05. 2:00 - 0/8 0/8 - - -
Di, 17.05. 20:00 5100 m 8/8 8/8 - - -
Di, 17.05. 14:00 2100 m 6/8 4/8 - - -
Di, 17.05. 8:00 2700 m 7/8 4/8 - - -
Di, 17.05. 2:00 - 0/8 0/8 - - -
Ortszeit Bedeckungsgrad in Achtel und Wolkenuntergrenze
Do, 19.05. 1:00 6(7800m) 8(9000m) 8(10500m)
Do, 19.05. 0:30 8(7800m) 8(9000m) 8(10500m)
Do, 19.05. 0:20 8(7800m) 8(9000m) 8(10500m)
Do, 19.05. 0:10 8
Do, 19.05. 0:00 8(7800m) 8(8400m) 8(9000m)
Mi, 18.05. 23:50 8(7800m) 8(8400m) 8(9000m)
Mi, 18.05. 23:30 8(7500m) 8(9000m)
Mi, 18.05. 23:00 8(7500m)
Mi, 18.05. 22:30 8(7500m)
Mi, 18.05. 22:00 8(7800m) 8(9000m) 8(10500m)
Ortszeit Luftdruck NN (hPa) Tendenz (hPa in 3 Std.)
Mi, 18.05. 20:00 1019 - 0,4
Mi, 18.05. 14:00 1020 - 0,8
Mi, 18.05. 8:00 1022 + 1,0
Mi, 18.05. 2:00 1021 + 0,4
Di, 17.05. 20:00 1019 - 0,5
Di, 17.05. 14:00 1020 - 0,9
Di, 17.05. 8:00 1023 + 0,8
Di, 17.05. 2:00 1022 + 0,5
Ortszeit Luftdruck NN (hPa) Tendenz (hPa in 3 Std.)
Do, 19.05. 1:00 1020 - 0,2
Do, 19.05. 0:30 1020 0,0
Do, 19.05. 0:20 1020 keine Meldung
Do, 19.05. 0:10 1020 keine Meldung
Do, 19.05. 0:00 1019 - 0,1
Mi, 18.05. 23:50 1019 keine Meldung
Mi, 18.05. 23:30 1019 - 0,2
Mi, 18.05. 23:00 1019 - 0,1
Mi, 18.05. 22:30 1019 - 0,1
Mi, 18.05. 22:00 1019 0,0
Ortszeit Schneehöhe (cm)
Mi, 18.05. 20:00 0
Mi, 18.05. 14:00 0
Mi, 18.05. 8:00 0
Mi, 18.05. 2:00 0
Di, 17.05. 20:00 0
Di, 17.05. 14:00 0
Di, 17.05. 8:00 0
Di, 17.05. 2:00 0
Ortszeit Schneehöhe (cm)
Do, 19.05. 1:00 -
Do, 19.05. 0:30 0
Do, 19.05. 0:20 0
Do, 19.05. 0:10 0
Do, 19.05. 0:00 0
Mi, 18.05. 23:50 0
Mi, 18.05. 23:30 0
Mi, 18.05. 23:00 0
Mi, 18.05. 22:30 0
Mi, 18.05. 22:00 0
Link zu dieser Seite / Seite empfehlen

Das Wetter in ...